sensor_id;sensor_type;location;lat;lon;timestamp;temperature;humidity
20204;DHT22;10261;49.010;12.034;2022-11-20T00:00:26;5.60;99.90
20204;DHT22;10261;49.010;12.034;2022-11-20T00:01:29;5.60;99.90
20204;DHT22;10261;49.010;12.034;2022-11-20T00:02:32;5.60;99.90
20204;DHT22;10261;49.010;12.034;2022-11-20T00:03:34;5.60;99.90
20204;DHT22;10261;49.010;12.034;2022-11-20T00:04:38;5.60;99.90
20204;DHT22;10261;49.010;12.034;2022-11-20T00:05:41;5.60;99.90
20204;DHT22;10261;49.010;12.034;2022-11-20T00:06:44;5.60;99.90
20204;DHT22;10261;49.010;12.034;2022-11-20T00:07:45;5.60;99.90
20204;DHT22;10261;49.010;12.034;2022-11-20T00:08:49;5.60;99.90
20204;DHT22;10261;49.010;12.034;2022-11-20T00:09:51;5.60;99.90
20204;DHT22;10261;49.010;12.034;2022-11-20T00:10:54;5.60;99.90
20204;DHT22;10261;49.010;12.034;2022-11-20T00:11:56;5.60;99.90
20204;DHT22;10261;49.010;12.034;2022-11-20T00:12:59;5.50;99.90
20204;DHT22;10261;49.010;12.034;2022-11-20T00:14:01;5.50;99.90
20204;DHT22;10261;49.010;12.034;2022-11-20T00:15:05;5.50;99.90
20204;DHT22;10261;49.010;12.034;2022-11-20T00:16:10;5.50;99.90
20204;DHT22;10261;49.010;12.034;2022-11-20T00:17:13;5.50;99.90
20204;DHT22;10261;49.010;12.034;2022-11-20T00:18:15;5.50;99.90
20204;DHT22;10261;49.010;12.034;2022-11-20T00:19:18;5.40;99.90
20204;DHT22;10261;49.010;12.034;2022-11-20T00:20:22;5.50;99.90
20204;DHT22;10261;49.010;12.034;2022-11-20T00:21:27;5.60;99.90
20204;DHT22;10261;49.010;12.034;2022-11-20T00:22:29;5.60;99.90
20204;DHT22;10261;49.010;12.034;2022-11-20T00:23:32;5.60;99.90
20204;DHT22;10261;49.010;12.034;2022-11-20T00:24:34;5.60;99.90
20204;DHT22;10261;49.010;12.034;2022-11-20T00:25:43;5.60;99.90
20204;DHT22;10261;49.010;12.034;2022-11-20T00:26:45;5.60;99.90
20204;DHT22;10261;49.010;12.034;2022-11-20T00:27:48;5.60;99.90
20204;DHT22;10261;49.010;12.034;2022-11-20T00:28:52;5.60;99.90
20204;DHT22;10261;49.010;12.034;2022-11-20T00:29:55;5.60;99.90
20204;DHT22;10261;49.010;12.034;2022-11-20T00:31:01;5.60;99.90
20204;DHT22;10261;49.010;12.034;2022-11-20T00:32:05;5.60;99.90
20204;DHT22;10261;49.010;12.034;2022-11-20T00:33:07;5.70;99.90
20204;DHT22;10261;49.010;12.034;2022-11-20T00:34:10;5.70;99.90
20204;DHT22;10261;49.010;12.034;2022-11-20T00:35:12;5.80;99.90
20204;DHT22;10261;49.010;12.034;2022-11-20T00:36:18;5.70;99.90
20204;DHT22;10261;49.010;12.034;2022-11-20T00:37:21;5.60;99.90
20204;DHT22;10261;49.010;12.034;2022-11-20T00:38:24;5.70;99.90
20204;DHT22;10261;49.010;12.034;2022-11-20T00:39:26;5.60;99.90
20204;DHT22;10261;49.010;12.034;2022-11-20T00:40:29;5.60;99.90
20204;DHT22;10261;49.010;12.034;2022-11-20T00:41:31;5.60;99.90
20204;DHT22;10261;49.010;12.034;2022-11-20T00:42:33;5.70;99.90
20204;DHT22;10261;49.010;12.034;2022-11-20T00:43:36;5.70;99.90
20204;DHT22;10261;49.010;12.034;2022-11-20T00:44:39;5.60;99.90
20204;DHT22;10261;49.010;12.034;2022-11-20T00:45:41;5.60;99.90
20204;DHT22;10261;49.010;12.034;2022-11-20T00:46:44;5.60;99.90
20204;DHT22;10261;49.010;12.034;2022-11-20T00:47:46;5.60;99.90
20204;DHT22;10261;49.010;12.034;2022-11-20T00:48:49;5.60;99.90
20204;DHT22;10261;49.010;12.034;2022-11-20T00:49:51;5.60;99.90
20204;DHT22;10261;49.010;12.034;2022-11-20T00:50:55;5.60;99.90
20204;DHT22;10261;49.010;12.034;2022-11-20T00:51:58;5.60;99.90
20204;DHT22;10261;49.010;12.034;2022-11-20T00:53:01;5.60;99.90
20204;DHT22;10261;49.010;12.034;2022-11-20T00:54:03;5.70;99.90
20204;DHT22;10261;49.010;12.034;2022-11-20T00:55:06;5.80;99.90
20204;DHT22;10261;49.010;12.034;2022-11-20T00:56:10;5.70;99.90
20204;DHT22;10261;49.010;12.034;2022-11-20T00:57:13;5.60;99.90
20204;DHT22;10261;49.010;12.034;2022-11-20T00:58:15;5.70;99.90
20204;DHT22;10261;49.010;12.034;2022-11-20T00:59:18;5.70;99.90
20204;DHT22;10261;49.010;12.034;2022-11-20T01:00:21;5.80;99.90
20204;DHT22;10261;49.010;12.034;2022-11-20T01:01:25;5.80;99.90
20204;DHT22;10261;49.010;12.034;2022-11-20T01:02:27;5.80;99.90
20204;DHT22;10261;49.010;12.034;2022-11-20T01:03:31;5.80;99.90
20204;DHT22;10261;49.010;12.034;2022-11-20T01:04:33;5.70;99.90
20204;DHT22;10261;49.010;12.034;2022-11-20T01:05:36;5.80;99.90
20204;DHT22;10261;49.010;12.034;2022-11-20T01:06:39;5.80;99.90
20204;DHT22;10261;49.010;12.034;2022-11-20T01:07:43;5.80;99.90
20204;DHT22;10261;49.010;12.034;2022-11-20T01:08:47;5.80;99.90
20204;DHT22;10261;49.010;12.034;2022-11-20T01:09:50;5.70;99.90
20204;DHT22;10261;49.010;12.034;2022-11-20T01:10:52;5.80;99.90
20204;DHT22;10261;49.010;12.034;2022-11-20T01:11:55;5.70;99.90
20204;DHT22;10261;49.010;12.034;2022-11-20T01:12:57;5.70;99.90
20204;DHT22;10261;49.010;12.034;2022-11-20T01:14:17;5.70;99.90
20204;DHT22;10261;49.010;12.034;2022-11-20T01:15:21;5.60;99.90
20204;DHT22;10261;49.010;12.034;2022-11-20T01:16:25;5.70;99.90
20204;DHT22;10261;49.010;12.034;2022-11-20T01:17:28;5.80;99.90
20204;DHT22;10261;49.010;12.034;2022-11-20T01:18:30;5.80;99.90
20204;DHT22;10261;49.010;12.034;2022-11-20T01:19:33;5.90;99.90
20204;DHT22;10261;49.010;12.034;2022-11-20T01:20:35;5.90;99.90
20204;DHT22;10261;49.010;12.034;2022-11-20T01:21:40;5.80;99.90
20204;DHT22;10261;49.010;12.034;2022-11-20T01:22:44;5.80;99.90
20204;DHT22;10261;49.010;12.034;2022-11-20T01:23:48;5.90;99.90
20204;DHT22;10261;49.010;12.034;2022-11-20T01:24:51;5.90;99.90
20204;DHT22;10261;49.010;12.034;2022-11-20T01:25:53;5.90;99.90
20204;DHT22;10261;49.010;12.034;2022-11-20T01:26:56;5.80;99.90
20204;DHT22;10261;49.010;12.034;2022-11-20T01:27:59;5.70;99.90
20204;DHT22;10261;49.010;12.034;2022-11-20T01:29:01;5.70;99.90
20204;DHT22;10261;49.010;12.034;2022-11-20T01:30:06;5.70;99.90
20204;DHT22;10261;49.010;12.034;2022-11-20T01:31:15;5.70;99.90
20204;DHT22;10261;49.010;12.034;2022-11-20T01:32:17;5.80;99.90
20204;DHT22;10261;49.010;12.034;2022-11-20T01:33:20;5.80;99.90
20204;DHT22;10261;49.010;12.034;2022-11-20T01:34:22;5.80;99.90
20204;DHT22;10261;49.010;12.034;2022-11-20T01:35:26;5.80;99.90
20204;DHT22;10261;49.010;12.034;2022-11-20T01:36:30;5.70;99.90
20204;DHT22;10261;49.010;12.034;2022-11-20T01:37:33;5.80;99.90
20204;DHT22;10261;49.010;12.034;2022-11-20T01:38:37;5.80;99.90
20204;DHT22;10261;49.010;12.034;2022-11-20T01:39:40;5.80;99.90
20204;DHT22;10261;49.010;12.034;2022-11-20T01:40:42;5.80;99.90
20204;DHT22;10261;49.010;12.034;2022-11-20T01:41:46;5.80;99.90
20204;DHT22;10261;49.010;12.034;2022-11-20T01:43:14;5.70;99.90
20204;DHT22;10261;49.010;12.034;2022-11-20T01:44:44;5.90;99.90
20204;DHT22;10261;49.010;12.034;2022-11-20T01:46:13;5.80;99.90
20204;DHT22;10261;49.010;12.034;2022-11-20T01:47:21;5.80;99.90
20204;DHT22;10261;49.010;12.034;2022-11-20T01:48:29;5.70;99.90
20204;DHT22;10261;49.010;12.034;2022-11-20T01:49:37;5.70;99.90
20204;DHT22;10261;49.010;12.034;2022-11-20T01:50:40;5.70;99.90
20204;DHT22;10261;49.010;12.034;2022-11-20T01:51:50;5.70;99.90
20204;DHT22;10261;49.010;12.034;2022-11-20T01:52:55;5.80;99.90
20204;DHT22;10261;49.010;12.034;2022-11-20T01:54:05;5.80;99.90
20204;DHT22;10261;49.010;12.034;2022-11-20T01:55:10;5.90;99.90
20204;DHT22;10261;49.010;12.034;2022-11-20T01:56:15;5.90;99.90
20204;DHT22;10261;49.010;12.034;2022-11-20T01:57:18;6.00;99.90
20204;DHT22;10261;49.010;12.034;2022-11-20T01:58:27;5.90;99.90
20204;DHT22;10261;49.010;12.034;2022-11-20T01:59:30;5.90;99.90
20204;DHT22;10261;49.010;12.034;2022-11-20T02:00:33;5.90;99.90
20204;DHT22;10261;49.010;12.034;2022-11-20T02:01:36;6.00;99.90
20204;DHT22;10261;49.010;12.034;2022-11-20T02:02:43;6.00;99.90
20204;DHT22;10261;49.010;12.034;2022-11-20T02:03:48;5.90;99.90
20204;DHT22;10261;49.010;12.034;2022-11-20T02:04:54;5.90;99.90
20204;DHT22;10261;49.010;12.034;2022-11-20T02:06:05;5.90;99.90
20204;DHT22;10261;49.010;12.034;2022-11-20T02:07:10;5.90;99.90
20204;DHT22;10261;49.010;12.034;2022-11-20T02:08:13;5.90;99.90
20204;DHT22;10261;49.010;12.034;2022-11-20T02:09:17;5.80;99.90
20204;DHT22;10261;49.010;12.034;2022-11-20T02:10:20;5.80;99.90
20204;DHT22;10261;49.010;12.034;2022-11-20T02:11:23;5.80;99.90
20204;DHT22;10261;49.010;12.034;2022-11-20T02:12:25;5.80;99.90
20204;DHT22;10261;49.010;12.034;2022-11-20T02:13:46;5.80;99.90
20204;DHT22;10261;49.010;12.034;2022-11-20T02:14:49;5.80;99.90
20204;DHT22;10261;49.010;12.034;2022-11-20T02:15:51;5.80;99.90
20204;DHT22;10261;49.010;12.034;2022-11-20T02:16:54;5.70;99.90
20204;DHT22;10261;49.010;12.034;2022-11-20T02:17:57;5.70;99.90
20204;DHT22;10261;49.010;12.034;2022-11-20T02:19:02;5.70;99.90
20204;DHT22;10261;49.010;12.034;2022-11-20T02:20:07;5.70;99.90
20204;DHT22;10261;49.010;12.034;2022-11-20T02:21:15;5.80;99.90
20204;DHT22;10261;49.010;12.034;2022-11-20T02:22:24;5.80;99.90
20204;DHT22;10261;49.010;12.034;2022-11-20T02:23:33;5.80;99.90
20204;DHT22;10261;49.010;12.034;2022-11-20T02:24:41;5.80;99.90
20204;DHT22;10261;49.010;12.034;2022-11-20T02:25:46;5.80;99.90
20204;DHT22;10261;49.010;12.034;2022-11-20T02:26:52;5.70;99.90
20204;DHT22;10261;49.010;12.034;2022-11-20T02:27:56;5.70;99.90
20204;DHT22;10261;49.010;12.034;2022-11-20T02:28:59;5.90;99.90
20204;DHT22;10261;49.010;12.034;2022-11-20T02:30:04;5.80;99.90
20204;DHT22;10261;49.010;12.034;2022-11-20T02:31:09;5.80;99.90
20204;DHT22;10261;49.010;12.034;2022-11-20T02:32:18;5.80;99.90
20204;DHT22;10261;49.010;12.034;2022-11-20T02:33:21;5.80;99.90
20204;DHT22;10261;49.010;12.034;2022-11-20T02:34:23;5.80;99.90
20204;DHT22;10261;49.010;12.034;2022-11-20T02:35:43;5.80;99.90
20204;DHT22;10261;49.010;12.034;2022-11-20T02:36:46;5.90;99.90
20204;DHT22;10261;49.010;12.034;2022-11-20T02:37:54;5.90;99.90
20204;DHT22;10261;49.010;12.034;2022-11-20T02:38:56;5.80;99.90
20204;DHT22;10261;49.010;12.034;2022-11-20T02:40:00;5.90;99.90
20204;DHT22;10261;49.010;12.034;2022-11-20T02:41:02;5.90;99.90
20204;DHT22;10261;49.010;12.034;2022-11-20T02:42:06;5.90;99.90
20204;DHT22;10261;49.010;12.034;2022-11-20T02:43:09;6.00;99.90
20204;DHT22;10261;49.010;12.034;2022-11-20T02:44:11;6.00;99.90
20204;DHT22;10261;49.010;12.034;2022-11-20T02:45:14;6.00;99.90
20204;DHT22;10261;49.010;12.034;2022-11-20T02:46:16;6.00;99.90
20204;DHT22;10261;49.010;12.034;2022-11-20T02:47:19;5.90;99.90
20204;DHT22;10261;49.010;12.034;2022-11-20T02:48:21;6.10;99.90
20204;DHT22;10261;49.010;12.034;2022-11-20T02:49:26;5.90;99.90
20204;DHT22;10261;49.010;12.034;2022-11-20T02:50:29;6.00;99.90
20204;DHT22;10261;49.010;12.034;2022-11-20T02:51:31;6.00;99.90
20204;DHT22;10261;49.010;12.034;2022-11-20T02:52:34;6.00;99.90
20204;DHT22;10261;49.010;12.034;2022-11-20T02:53:36;6.00;99.90
20204;DHT22;10261;49.010;12.034;2022-11-20T02:54:39;6.00;99.90
20204;DHT22;10261;49.010;12.034;2022-11-20T02:55:42;6.00;99.90
20204;DHT22;10261;49.010;12.034;2022-11-20T02:56:45;6.00;99.90
20204;DHT22;10261;49.010;12.034;2022-11-20T02:57:47;6.00;99.90
20204;DHT22;10261;49.010;12.034;2022-11-20T02:58:50;5.90;99.90
20204;DHT22;10261;49.010;12.034;2022-11-20T02:59:52;5.90;99.90
20204;DHT22;10261;49.010;12.034;2022-11-20T03:00:55;5.90;99.90
20204;DHT22;10261;49.010;12.034;2022-11-20T03:01:57;5.80;99.90
20204;DHT22;10261;49.010;12.034;2022-11-20T03:03:01;5.70;99.90
20204;DHT22;10261;49.010;12.034;2022-11-20T03:04:03;5.70;99.90
20204;DHT22;10261;49.010;12.034;2022-11-20T03:05:06;5.70;99.90
20204;DHT22;10261;49.010;12.034;2022-11-20T03:06:09;5.70;99.90
20204;DHT22;10261;49.010;12.034;2022-11-20T03:07:12;5.70;99.90
20204;DHT22;10261;49.010;12.034;2022-11-20T03:08:14;5.70;99.90
20204;DHT22;10261;49.010;12.034;2022-11-20T03:09:17;5.80;99.90
20204;DHT22;10261;49.010;12.034;2022-11-20T03:10:19;5.70;99.90
20204;DHT22;10261;49.010;12.034;2022-11-20T03:11:23;5.70;99.90
20204;DHT22;10261;49.010;12.034;2022-11-20T03:12:26;5.70;99.90
20204;DHT22;10261;49.010;12.034;2022-11-20T03:13:29;5.70;99.90
20204;DHT22;10261;49.010;12.034;2022-11-20T03:14:31;5.70;99.90
20204;DHT22;10261;49.010;12.034;2022-11-20T03:15:36;5.70;99.90
20204;DHT22;10261;49.010;12.034;2022-11-20T03:16:38;5.80;99.90
20204;DHT22;10261;49.010;12.034;2022-11-20T03:17:41;5.80;99.90
20204;DHT22;10261;49.010;12.034;2022-11-20T03:18:43;5.80;99.90
20204;DHT22;10261;49.010;12.034;2022-11-20T03:19:46;5.90;99.90
20204;DHT22;10261;49.010;12.034;2022-11-20T03:20:49;5.80;99.90
20204;DHT22;10261;49.010;12.034;2022-11-20T03:21:52;5.90;99.90
20204;DHT22;10261;49.010;12.034;2022-11-20T03:22:54;5.80;99.90
20204;DHT22;10261;49.010;12.034;2022-11-20T03:23:57;5.80;99.90
20204;DHT22;10261;49.010;12.034;2022-11-20T03:24:59;5.80;99.90
20204;DHT22;10261;49.010;12.034;2022-11-20T03:26:13;5.80;99.90
20204;DHT22;10261;49.010;12.034;2022-11-20T03:27:18;5.80;99.90
20204;DHT22;10261;49.010;12.034;2022-11-20T03:28:20;5.80;99.90
20204;DHT22;10261;49.010;12.034;2022-11-20T03:29:23;5.80;99.90
20204;DHT22;10261;49.010;12.034;2022-11-20T03:30:25;5.90;99.90
20204;DHT22;10261;49.010;12.034;2022-11-20T03:31:33;5.90;99.90
20204;DHT22;10261;49.010;12.034;2022-11-20T03:32:35;5.80;99.90
20204;DHT22;10261;49.010;12.034;2022-11-20T03:33:40;5.80;99.90
20204;DHT22;10261;49.010;12.034;2022-11-20T03:34:42;5.90;99.90
20204;DHT22;10261;49.010;12.034;2022-11-20T03:35:45;5.90;99.90
20204;DHT22;10261;49.010;12.034;2022-11-20T03:36:47;5.90;99.90
20204;DHT22;10261;49.010;12.034;2022-11-20T03:37:50;5.90;99.90
20204;DHT22;10261;49.010;12.034;2022-11-20T03:38:53;5.90;99.90
20204;DHT22;10261;49.010;12.034;2022-11-20T03:39:56;5.90;99.90
20204;DHT22;10261;49.010;12.034;2022-11-20T03:41:00;5.90;99.90
20204;DHT22;10261;49.010;12.034;2022-11-20T03:42:03;6.00;99.90
20204;DHT22;10261;49.010;12.034;2022-11-20T03:43:27;6.00;99.90
20204;DHT22;10261;49.010;12.034;2022-11-20T03:44:29;6.00;99.90
20204;DHT22;10261;49.010;12.034;2022-11-20T03:45:32;6.00;99.90
20204;DHT22;10261;49.010;12.034;2022-11-20T03:46:35;6.00;99.90
20204;DHT22;10261;49.010;12.034;2022-11-20T03:47:37;6.00;99.90
20204;DHT22;10261;49.010;12.034;2022-11-20T03:48:40;6.00;99.90
20204;DHT22;10261;49.010;12.034;2022-11-20T03:49:42;5.90;99.90
20204;DHT22;10261;49.010;12.034;2022-11-20T03:50:45;5.90;99.90
20204;DHT22;10261;49.010;12.034;2022-11-20T03:51:49;5.90;99.90
20204;DHT22;10261;49.010;12.034;2022-11-20T03:52:52;5.90;99.90
20204;DHT22;10261;49.010;12.034;2022-11-20T03:53:57;5.90;99.90
20204;DHT22;10261;49.010;12.034;2022-11-20T03:55:00;6.00;99.90
20204;DHT22;10261;49.010;12.034;2022-11-20T03:56:02;6.00;99.90
20204;DHT22;10261;49.010;12.034;2022-11-20T03:57:05;6.00;99.90
20204;DHT22;10261;49.010;12.034;2022-11-20T03:58:07;6.00;99.90
20204;DHT22;10261;49.010;12.034;2022-11-20T03:59:12;6.00;99.90
20204;DHT22;10261;49.010;12.034;2022-11-20T04:00:14;6.00;99.90
20204;DHT22;10261;49.010;12.034;2022-11-20T04:01:19;6.00;99.90
20204;DHT22;10261;49.010;12.034;2022-11-20T04:02:21;6.00;99.90
20204;DHT22;10261;49.010;12.034;2022-11-20T04:03:25;6.00;99.90
20204;DHT22;10261;49.010;12.034;2022-11-20T04:04:27;6.00;99.90
20204;DHT22;10261;49.010;12.034;2022-11-20T04:05:30;5.90;99.90
20204;DHT22;10261;49.010;12.034;2022-11-20T04:06:36;6.00;99.90
20204;DHT22;10261;49.010;12.034;2022-11-20T04:07:39;6.00;99.90
20204;DHT22;10261;49.010;12.034;2022-11-20T04:08:41;6.00;99.90
20204;DHT22;10261;49.010;12.034;2022-11-20T04:09:44;5.90;99.90
20204;DHT22;10261;49.010;12.034;2022-11-20T04:10:46;5.90;99.90
20204;DHT22;10261;49.010;12.034;2022-11-20T04:11:49;5.90;99.90
20204;DHT22;10261;49.010;12.034;2022-11-20T04:12:51;6.00;99.90
20204;DHT22;10261;49.010;12.034;2022-11-20T04:13:57;6.90;99.90
20204;DHT22;10261;49.010;12.034;2022-11-20T04:15:00;5.90;99.90
20204;DHT22;10261;49.010;12.034;2022-11-20T04:16:04;5.90;99.90
20204;DHT22;10261;49.010;12.034;2022-11-20T04:17:06;6.00;99.90
20204;DHT22;10261;49.010;12.034;2022-11-20T04:18:09;6.00;99.90
20204;DHT22;10261;49.010;12.034;2022-11-20T04:19:12;6.00;99.90
20204;DHT22;10261;49.010;12.034;2022-11-20T04:20:16;6.00;99.90
20204;DHT22;10261;49.010;12.034;2022-11-20T04:21:18;6.00;99.90
20204;DHT22;10261;49.010;12.034;2022-11-20T04:22:21;6.00;99.90
20204;DHT22;10261;49.010;12.034;2022-11-20T04:23:23;6.00;99.90
20204;DHT22;10261;49.010;12.034;2022-11-20T04:24:29;5.90;99.90
20204;DHT22;10261;49.010;12.034;2022-11-20T04:25:31;6.00;99.90
20204;DHT22;10261;49.010;12.034;2022-11-20T04:26:34;6.00;99.90
20204;DHT22;10261;49.010;12.034;2022-11-20T04:27:36;6.00;99.90
20204;DHT22;10261;49.010;12.034;2022-11-20T04:28:40;6.10;99.90
20204;DHT22;10261;49.010;12.034;2022-11-20T04:29:42;6.10;99.90
20204;DHT22;10261;49.010;12.034;2022-11-20T04:30:47;6.10;99.90
20204;DHT22;10261;49.010;12.034;2022-11-20T04:31:48;6.00;99.90
20204;DHT22;10261;49.010;12.034;2022-11-20T04:32:52;6.00;99.90
20204;DHT22;10261;49.010;12.034;2022-11-20T04:33:54;6.00;99.90
20204;DHT22;10261;49.010;12.034;2022-11-20T04:34:57;6.00;99.90
20204;DHT22;10261;49.010;12.034;2022-11-20T04:36:02;6.00;99.90
20204;DHT22;10261;49.010;12.034;2022-11-20T04:37:04;6.00;99.90
20204;DHT22;10261;49.010;12.034;2022-11-20T04:38:07;6.00;99.90
20204;DHT22;10261;49.010;12.034;2022-11-20T04:39:12;5.90;99.90
20204;DHT22;10261;49.010;12.034;2022-11-20T04:40:16;6.00;99.90
20204;DHT22;10261;49.010;12.034;2022-11-20T04:41:19;6.00;99.90
20204;DHT22;10261;49.010;12.034;2022-11-20T04:42:23;6.00;99.90
20204;DHT22;10261;49.010;12.034;2022-11-20T04:43:32;6.00;99.90
20204;DHT22;10261;49.010;12.034;2022-11-20T04:44:35;6.10;99.90
20204;DHT22;10261;49.010;12.034;2022-11-20T04:45:37;6.10;99.90
20204;DHT22;10261;49.010;12.034;2022-11-20T04:46:42;6.10;99.90
20204;DHT22;10261;49.010;12.034;2022-11-20T04:47:45;6.20;99.90
20204;DHT22;10261;49.010;12.034;2022-11-20T04:48:47;6.20;99.90
20204;DHT22;10261;49.010;12.034;2022-11-20T04:49:50;6.20;99.90
20204;DHT22;10261;49.010;12.034;2022-11-20T04:50:52;6.10;99.90
20204;DHT22;10261;49.010;12.034;2022-11-20T04:51:55;6.00;99.90
20204;DHT22;10261;49.010;12.034;2022-11-20T04:52:57;6.00;99.90
20204;DHT22;10261;49.010;12.034;2022-11-20T04:54:00;6.00;99.90
20204;DHT22;10261;49.010;12.034;2022-11-20T04:55:03;6.00;99.90
20204;DHT22;10261;49.010;12.034;2022-11-20T04:56:08;6.00;99.90
20204;DHT22;10261;49.010;12.034;2022-11-20T04:57:12;6.10;99.90
20204;DHT22;10261;49.010;12.034;2022-11-20T04:58:16;6.10;99.90
20204;DHT22;10261;49.010;12.034;2022-11-20T04:59:18;6.10;99.90
20204;DHT22;10261;49.010;12.034;2022-11-20T05:00:21;6.20;99.90
20204;DHT22;10261;49.010;12.034;2022-11-20T05:01:24;6.10;99.90
20204;DHT22;10261;49.010;12.034;2022-11-20T05:02:30;6.10;99.90
20204;DHT22;10261;49.010;12.034;2022-11-20T05:03:32;6.00;99.90
20204;DHT22;10261;49.010;12.034;2022-11-20T05:04:42;6.00;99.90
20204;DHT22;10261;49.010;12.034;2022-11-20T05:05:45;6.10;99.90
20204;DHT22;10261;49.010;12.034;2022-11-20T05:06:47;6.00;99.90
20204;DHT22;10261;49.010;12.034;2022-11-20T05:07:51;6.10;99.90
20204;DHT22;10261;49.010;12.034;2022-11-20T05:08:53;6.00;99.90
20204;DHT22;10261;49.010;12.034;2022-11-20T05:09:56;6.00;99.90
20204;DHT22;10261;49.010;12.034;2022-11-20T05:11:02;6.00;99.90
20204;DHT22;10261;49.010;12.034;2022-11-20T05:12:07;6.00;99.90
20204;DHT22;10261;49.010;12.034;2022-11-20T05:13:09;6.00;99.90
20204;DHT22;10261;49.010;12.034;2022-11-20T05:14:12;6.10;99.90
20204;DHT22;10261;49.010;12.034;2022-11-20T05:15:14;6.00;99.90
20204;DHT22;10261;49.010;12.034;2022-11-20T05:16:19;6.00;99.90
20204;DHT22;10261;49.010;12.034;2022-11-20T05:17:22;6.10;99.90
20204;DHT22;10261;49.010;12.034;2022-11-20T05:18:26;6.10;99.90
20204;DHT22;10261;49.010;12.034;2022-11-20T05:19:28;6.10;99.90
20204;DHT22;10261;49.010;12.034;2022-11-20T05:20:31;6.10;99.90
20204;DHT22;10261;49.010;12.034;2022-11-20T05:21:33;6.00;99.90
20204;DHT22;10261;49.010;12.034;2022-11-20T05:22:36;6.10;99.90
20204;DHT22;10261;49.010;12.034;2022-11-20T05:23:38;6.00;99.90
20204;DHT22;10261;49.010;12.034;2022-11-20T05:24:41;6.00;99.90
20204;DHT22;10261;49.010;12.034;2022-11-20T05:25:43;6.00;99.90
20204;DHT22;10261;49.010;12.034;2022-11-20T05:26:46;6.10;99.90
20204;DHT22;10261;49.010;12.034;2022-11-20T05:27:48;6.00;99.90
20204;DHT22;10261;49.010;12.034;2022-11-20T05:28:51;6.10;99.90
20204;DHT22;10261;49.010;12.034;2022-11-20T05:29:53;6.10;99.90
20204;DHT22;10261;49.010;12.034;2022-11-20T05:31:03;6.10;99.90
20204;DHT22;10261;49.010;12.034;2022-11-20T05:32:05;6.10;99.90
20204;DHT22;10261;49.010;12.034;2022-11-20T05:33:10;6.10;99.90
20204;DHT22;10261;49.010;12.034;2022-11-20T05:34:14;6.10;99.90
20204;DHT22;10261;49.010;12.034;2022-11-20T05:35:17;6.00;99.90
20204;DHT22;10261;49.010;12.034;2022-11-20T05:36:19;5.90;99.90
20204;DHT22;10261;49.010;12.034;2022-11-20T05:37:22;6.00;99.90
20204;DHT22;10261;49.010;12.034;2022-11-20T05:38:24;6.00;99.90
20204;DHT22;10261;49.010;12.034;2022-11-20T05:39:27;6.00;99.90
20204;DHT22;10261;49.010;12.034;2022-11-20T05:40:29;6.00;99.90
20204;DHT22;10261;49.010;12.034;2022-11-20T05:41:33;6.00;99.90
20204;DHT22;10261;49.010;12.034;2022-11-20T05:42:35;6.00;99.90
20204;DHT22;10261;49.010;12.034;2022-11-20T05:43:39;6.00;99.90
20204;DHT22;10261;49.010;12.034;2022-11-20T05:44:41;6.00;99.90
20204;DHT22;10261;49.010;12.034;2022-11-20T05:45:52;6.00;99.90
20204;DHT22;10261;49.010;12.034;2022-11-20T05:46:54;6.10;99.90
20204;DHT22;10261;49.010;12.034;2022-11-20T05:47:58;6.00;99.90
20204;DHT22;10261;49.010;12.034;2022-11-20T05:49:00;6.10;99.90
20204;DHT22;10261;49.010;12.034;2022-11-20T05:50:05;6.00;99.90
20204;DHT22;10261;49.010;12.034;2022-11-20T05:51:09;6.00;99.90
20204;DHT22;10261;49.010;12.034;2022-11-20T05:52:12;6.00;99.90
20204;DHT22;10261;49.010;12.034;2022-11-20T05:53:14;6.00;99.90
20204;DHT22;10261;49.010;12.034;2022-11-20T05:54:17;6.00;99.90
20204;DHT22;10261;49.010;12.034;2022-11-20T05:55:20;6.00;99.90
20204;DHT22;10261;49.010;12.034;2022-11-20T05:56:22;6.00;99.90
20204;DHT22;10261;49.010;12.034;2022-11-20T05:57:25;6.00;99.90
20204;DHT22;10261;49.010;12.034;2022-11-20T05:58:27;6.00;99.90
20204;DHT22;10261;49.010;12.034;2022-11-20T05:59:30;6.00;99.90
20204;DHT22;10261;49.010;12.034;2022-11-20T06:00:32;6.10;99.90
20204;DHT22;10261;49.010;12.034;2022-11-20T06:01:35;6.10;99.90
20204;DHT22;10261;49.010;12.034;2022-11-20T06:02:37;6.10;99.90
20204;DHT22;10261;49.010;12.034;2022-11-20T06:03:41;6.10;99.90
20204;DHT22;10261;49.010;12.034;2022-11-20T06:04:44;6.10;99.90
20204;DHT22;10261;49.010;12.034;2022-11-20T06:05:48;6.10;99.90
20204;DHT22;10261;49.010;12.034;2022-11-20T06:06:50;6.10;99.90
20204;DHT22;10261;49.010;12.034;2022-11-20T06:07:53;6.10;99.90
20204;DHT22;10261;49.010;12.034;2022-11-20T06:08:56;6.10;99.90
20204;DHT22;10261;49.010;12.034;2022-11-20T06:10:00;6.20;99.90
20204;DHT22;10261;49.010;12.034;2022-11-20T06:11:06;6.20;99.90
20204;DHT22;10261;49.010;12.034;2022-11-20T06:12:09;6.20;99.90
20204;DHT22;10261;49.010;12.034;2022-11-20T06:13:11;6.20;99.90
20204;DHT22;10261;49.010;12.034;2022-11-20T06:14:14;6.20;99.90
20204;DHT22;10261;49.010;12.034;2022-11-20T06:15:17;6.20;99.90
20204;DHT22;10261;49.010;12.034;2022-11-20T06:16:20;6.20;99.90
20204;DHT22;10261;49.010;12.034;2022-11-20T06:17:23;6.20;99.90
20204;DHT22;10261;49.010;12.034;2022-11-20T06:18:26;6.30;99.90
20204;DHT22;10261;49.010;12.034;2022-11-20T06:19:29;6.30;99.90
20204;DHT22;10261;49.010;12.034;2022-11-20T06:20:32;6.30;99.90
20204;DHT22;10261;49.010;12.034;2022-11-20T06:21:43;6.20;99.90
20204;DHT22;10261;49.010;12.034;2022-11-20T06:22:46;6.30;99.90
20204;DHT22;10261;49.010;12.034;2022-11-20T06:23:49;6.20;99.90
20204;DHT22;10261;49.010;12.034;2022-11-20T06:24:53;6.30;99.90
20204;DHT22;10261;49.010;12.034;2022-11-20T06:25:55;6.20;99.90
20204;DHT22;10261;49.010;12.034;2022-11-20T06:26:57;6.30;99.90
20204;DHT22;10261;49.010;12.034;2022-11-20T06:28:00;6.20;99.90
20204;DHT22;10261;49.010;12.034;2022-11-20T06:29:02;6.20;99.90
20204;DHT22;10261;49.010;12.034;2022-11-20T06:30:06;6.20;99.90
20204;DHT22;10261;49.010;12.034;2022-11-20T06:31:11;6.20;99.90
20204;DHT22;10261;49.010;12.034;2022-11-20T06:32:15;6.20;99.90
20204;DHT22;10261;49.010;12.034;2022-11-20T06:33:16;6.10;99.90
20204;DHT22;10261;49.010;12.034;2022-11-20T06:34:19;6.20;99.90
20204;DHT22;10261;49.010;12.034;2022-11-20T06:35:22;6.20;99.90
20204;DHT22;10261;49.010;12.034;2022-11-20T06:36:25;6.10;99.90
20204;DHT22;10261;49.010;12.034;2022-11-20T06:37:28;6.20;99.90
20204;DHT22;10261;49.010;12.034;2022-11-20T06:38:31;6.20;99.90
20204;DHT22;10261;49.010;12.034;2022-11-20T06:39:33;6.20;99.90
20204;DHT22;10261;49.010;12.034;2022-11-20T06:40:38;6.20;99.90
20204;DHT22;10261;49.010;12.034;2022-11-20T06:41:41;6.10;99.90
20204;DHT22;10261;49.010;12.034;2022-11-20T06:42:44;6.20;99.90